createdAt,value
2022-10-05T00:00:22.803Z,5.87
2022-10-05T00:03:11.459Z,5.81
2022-10-05T00:05:39.542Z,5.75
2022-10-05T00:08:21.532Z,5.75
2022-10-05T00:10:49.022Z,5.73
2022-10-05T00:13:20.122Z,5.68
2022-10-05T00:15:48.335Z,5.67
2022-10-05T00:18:21.048Z,5.71
2022-10-05T00:20:49.383Z,5.68
2022-10-05T00:23:21.067Z,5.70
2022-10-05T00:25:48.089Z,5.61
2022-10-05T00:28:21.469Z,5.57
2022-10-05T00:30:48.528Z,5.68
2022-10-05T00:33:15.485Z,5.64
2022-10-05T00:35:42.322Z,5.58
2022-10-05T00:38:09.165Z,5.58
2022-10-05T00:40:45.335Z,5.64
2022-10-05T00:43:21.396Z,5.67
2022-10-05T00:45:56.579Z,5.60
2022-10-05T00:49:00.781Z,5.60
2022-10-05T00:51:44.196Z,5.70
2022-10-05T00:54:20.358Z,5.72
2022-10-05T00:57:02.139Z,5.76
2022-10-05T00:59:41.279Z,5.78
2022-10-05T01:02:37.110Z,5.76
2022-10-05T01:05:41.935Z,5.67
2022-10-05T01:08:17.583Z,5.65
2022-10-05T01:11:25.806Z,5.63
2022-10-05T01:14:28.490Z,5.67
2022-10-05T01:17:22.988Z,5.63
2022-10-05T01:20:20.962Z,5.61
2022-10-05T01:23:09.410Z,5.56
2022-10-05T01:26:21.051Z,5.53
2022-10-05T01:28:57.309Z,5.56
2022-10-05T01:31:30.289Z,5.54
2022-10-05T01:34:19.038Z,5.54
2022-10-05T01:36:51.594Z,5.57
2022-10-05T01:40:03.518Z,5.52
2022-10-05T01:42:52.572Z,5.55
2022-10-05T01:45:37.432Z,5.55
2022-10-05T01:48:19.232Z,5.55
2022-10-05T01:50:51.905Z,5.57
2022-10-05T01:53:36.051Z,5.56
2022-10-05T01:56:05.964Z,5.50
2022-10-05T01:58:32.727Z,5.48
2022-10-05T02:01:06.730Z,5.46
2022-10-05T02:03:39.508Z,5.44
2022-10-05T02:06:17.202Z,5.45
2022-10-05T02:08:53.878Z,5.52
2022-10-05T02:11:21.139Z,5.53
2022-10-05T02:14:01.185Z,5.50
2022-10-05T02:16:43.704Z,5.47
2022-10-05T02:19:20.584Z,5.41
2022-10-05T02:21:54.438Z,5.35
2022-10-05T02:24:26.759Z,5.30
2022-10-05T02:26:56.170Z,5.30
2022-10-05T02:29:27.091Z,5.31
2022-10-05T02:32:00.200Z,5.30
2022-10-05T02:34:36.894Z,5.27
2022-10-05T02:37:36.391Z,5.25
2022-10-05T02:40:19.418Z,5.22
2022-10-05T02:42:59.562Z,5.21
2022-10-05T02:45:35.090Z,5.22
2022-10-05T02:48:27.770Z,5.22
2022-10-05T02:51:10.176Z,5.19
2022-10-05T02:54:02.759Z,5.19
2022-10-05T02:56:52.395Z,5.17
2022-10-05T02:59:30.916Z,5.21
2022-10-05T03:02:03.159Z,5.16
2022-10-05T03:04:49.188Z,5.11
2022-10-05T03:07:41.428Z,5.11
2022-10-05T03:10:53.431Z,5.08
2022-10-05T03:13:29.650Z,5.03
2022-10-05T03:16:05.763Z,5.00
2022-10-05T03:19:12.129Z,5.01
2022-10-05T03:21:58.634Z,5.10
2022-10-05T03:24:43.735Z,5.13
2022-10-05T03:27:25.296Z,5.12
2022-10-05T03:30:09.372Z,5.10
2022-10-05T03:33:07.318Z,5.04
2022-10-05T03:36:07.489Z,5.06
2022-10-05T03:38:41.558Z,5.11
2022-10-05T03:41:26.561Z,5.19
2022-10-05T03:44:15.267Z,5.20
2022-10-05T03:47:09.570Z,5.19
2022-10-05T03:50:05.303Z,5.15
2022-10-05T03:52:46.068Z,5.10
2022-10-05T03:55:18.137Z,5.11
2022-10-05T03:57:48.473Z,5.13
2022-10-05T04:00:25.026Z,5.17
2022-10-05T04:03:16.659Z,5.20
2022-10-05T04:06:09.745Z,5.25
2022-10-05T04:08:51.917Z,5.22
2022-10-05T04:11:28.237Z,5.22
2022-10-05T04:14:22.664Z,5.23
2022-10-05T04:16:59.049Z,5.29
2022-10-05T04:20:09.203Z,5.30
2022-10-05T04:22:48.978Z,5.34
2022-10-05T04:25:30.642Z,5.37
2022-10-05T04:28:13.000Z,5.38
2022-10-05T04:30:45.334Z,5.40
2022-10-05T04:33:13.405Z,5.39
2022-10-05T04:35:49.875Z,5.35
2022-10-05T04:38:59.157Z,5.35
2022-10-05T04:42:07.133Z,5.34
2022-10-05T04:44:40.224Z,5.36
2022-10-05T04:47:13.621Z,5.36
2022-10-05T04:50:12.617Z,5.38
2022-10-05T04:52:57.597Z,5.38
2022-10-05T04:55:49.774Z,5.38
2022-10-05T04:58:40.054Z,5.37
2022-10-05T05:01:24.605Z,5.38
2022-10-05T05:04:21.013Z,5.42
2022-10-05T05:07:07.510Z,5.46
2022-10-05T05:09:47.730Z,5.51
2022-10-05T05:12:47.497Z,5.52
2022-10-05T05:15:38.913Z,5.51
2022-10-05T05:18:30.282Z,5.52
2022-10-05T05:21:18.881Z,5.55
2022-10-05T05:23:57.300Z,5.59
2022-10-05T05:26:40.122Z,5.67
2022-10-05T05:29:35.264Z,5.72
2022-10-05T05:32:28.794Z,5.76
2022-10-05T05:35:01.849Z,5.75
2022-10-05T05:37:45.019Z,5.73
2022-10-05T05:40:49.950Z,5.75
2022-10-05T05:43:48.129Z,5.80
2022-10-05T05:47:02.329Z,5.87
2022-10-05T05:50:09.992Z,5.93
2022-10-05T05:52:54.757Z,6.02
2022-10-05T05:55:39.113Z,6.12
2022-10-05T05:58:25.008Z,6.22
2022-10-05T06:00:56.451Z,6.35
2022-10-05T06:03:36.709Z,6.45
2022-10-05T06:06:13.724Z,6.58
2022-10-05T06:08:52.761Z,6.69
2022-10-05T06:12:02.377Z,6.76
2022-10-05T06:14:52.773Z,6.82
2022-10-05T06:17:38.665Z,6.89
2022-10-05T06:20:21.689Z,6.99
2022-10-05T06:22:50.749Z,7.09
2022-10-05T06:25:28.708Z,7.16
2022-10-05T06:28:08.704Z,7.24
2022-10-05T06:30:48.182Z,7.37
2022-10-05T06:33:37.447Z,7.50
2022-10-05T06:36:42.739Z,7.59
2022-10-05T06:39:41.281Z,7.68
2022-10-05T06:42:13.282Z,7.80
2022-10-05T06:45:53.948Z,7.95
2022-10-05T06:48:57.849Z,8.11
2022-10-05T06:52:02.474Z,8.23
2022-10-05T06:54:55.432Z,8.35
2022-10-05T06:57:49.521Z,8.45
2022-10-05T07:00:24.197Z,8.58
2022-10-05T07:03:09.964Z,8.69
2022-10-05T07:06:11.378Z,8.80
2022-10-05T07:08:59.943Z,8.95
2022-10-05T07:11:50.133Z,9.09
2022-10-05T07:14:25.886Z,9.26
2022-10-05T07:16:56.109Z,9.40
2022-10-05T07:19:44.670Z,9.51
2022-10-05T07:22:36.850Z,9.64
2022-10-05T07:25:20.186Z,9.74
2022-10-05T07:27:58.040Z,9.82
2022-10-05T07:30:24.975Z,9.91
2022-10-05T07:33:20.596Z,10.01
2022-10-05T07:36:27.695Z,10.14
2022-10-05T07:38:57.412Z,10.30
2022-10-05T07:41:27.521Z,10.44
2022-10-05T07:44:18.440Z,10.57
2022-10-05T07:46:56.337Z,10.70
2022-10-05T07:49:41.408Z,10.82
2022-10-05T07:52:21.667Z,10.93
2022-10-05T07:55:11.646Z,10.99
2022-10-05T07:57:53.861Z,11.05
2022-10-05T08:00:23.571Z,11.13
2022-10-05T08:03:10.736Z,11.23
2022-10-05T08:05:43.372Z,11.33
2022-10-05T08:08:10.031Z,11.42
2022-10-05T08:11:02.047Z,11.48
2022-10-05T08:13:32.813Z,11.57
2022-10-05T08:16:12.174Z,11.58
2022-10-05T08:18:48.378Z,11.59
2022-10-05T08:21:20.556Z,11.61
2022-10-05T08:23:59.578Z,11.68
2022-10-05T08:26:35.645Z,11.69
2022-10-05T08:29:34.022Z,11.74
2022-10-05T08:32:12.344Z,11.83
2022-10-05T08:35:00.390Z,11.89
2022-10-05T08:37:32.561Z,11.94
2022-10-05T08:40:32.582Z,11.98
2022-10-05T08:43:17.870Z,11.93
2022-10-05T08:46:17.309Z,11.89
2022-10-05T08:49:21.445Z,11.89
2022-10-05T08:52:06.445Z,11.92
2022-10-05T08:54:43.095Z,11.97
2022-10-05T08:57:47.777Z,11.98
2022-10-05T09:00:21.669Z,12.31
2022-10-05T09:03:13.215Z,12.54
2022-10-05T09:05:58.465Z,12.88
2022-10-05T09:08:53.369Z,13.19
2022-10-05T09:11:32.606Z,13.50
2022-10-05T09:14:18.395Z,13.84
2022-10-05T09:17:15.679Z,14.15
2022-10-05T09:19:52.913Z,14.37
2022-10-05T09:22:38.244Z,14.75
2022-10-05T09:25:16.651Z,14.92
2022-10-05T09:27:53.101Z,15.03
2022-10-05T09:30:40.998Z,14.78
2022-10-05T09:33:26.842Z,14.64
2022-10-05T09:36:02.581Z,14.56
2022-10-05T09:38:57.174Z,14.47
2022-10-05T09:41:53.068Z,14.29
2022-10-05T09:44:32.194Z,14.05
2022-10-05T09:47:21.206Z,13.90
2022-10-05T09:50:09.712Z,13.81
2022-10-05T09:52:58.146Z,13.89
2022-10-05T09:55:46.345Z,13.86
2022-10-05T09:58:32.863Z,13.87
2022-10-05T10:01:39.682Z,13.87
2022-10-05T10:04:25.525Z,13.78
2022-10-05T10:06:55.138Z,13.75
2022-10-05T10:09:41.127Z,13.66
2022-10-05T10:12:19.648Z,13.59
2022-10-05T10:15:15.268Z,13.67
2022-10-05T10:18:19.383Z,13.76
2022-10-05T10:21:21.768Z,13.79
2022-10-05T10:24:15.545Z,13.77
2022-10-05T10:26:56.415Z,13.74
2022-10-05T10:29:51.314Z,13.71
2022-10-05T10:32:40.125Z,13.65
2022-10-05T10:35:22.282Z,13.70
2022-10-05T10:38:02.168Z,13.72
2022-10-05T10:41:06.556Z,13.75
2022-10-05T10:43:57.735Z,13.75
2022-10-05T10:47:02.011Z,13.73
2022-10-05T10:50:06.459Z,13.78
2022-10-05T10:52:53.437Z,13.79
2022-10-05T10:55:38.438Z,13.83
2022-10-05T10:58:17.887Z,13.91
2022-10-05T11:01:15.071Z,13.92
2022-10-05T11:04:19.730Z,13.93
2022-10-05T11:07:05.261Z,13.95
2022-10-05T11:10:00.233Z,14.01
2022-10-05T11:12:29.831Z,14.08
2022-10-05T11:15:12.960Z,14.15
2022-10-05T11:17:55.364Z,14.16
2022-10-05T11:20:25.196Z,14.18
2022-10-05T11:22:55.203Z,14.21
2022-10-05T11:26:01.165Z,14.21
2022-10-05T11:28:39.853Z,14.25
2022-10-05T11:31:35.013Z,14.22
2022-10-05T11:34:28.088Z,14.21
2022-10-05T11:37:38.172Z,14.24
2022-10-05T11:40:43.055Z,14.13
2022-10-05T11:43:58.578Z,14.18
2022-10-05T11:46:53.484Z,14.22
2022-10-05T11:49:35.369Z,14.33
2022-10-05T11:52:25.325Z,14.35
2022-10-05T11:55:23.321Z,14.38
2022-10-05T11:58:07.141Z,14.42
2022-10-05T12:00:46.703Z,14.52
2022-10-05T12:03:27.227Z,14.50
2022-10-05T12:06:39.247Z,14.44
2022-10-05T12:09:20.943Z,14.44
2022-10-05T12:12:18.299Z,14.56
2022-10-05T12:15:17.316Z,14.70
2022-10-05T12:18:08.003Z,14.82
2022-10-05T12:21:32.506Z,14.87
2022-10-05T12:24:13.064Z,14.89
2022-10-05T12:26:44.219Z,14.88
2022-10-05T12:29:37.476Z,14.91
2022-10-05T12:32:08.518Z,14.89
2022-10-05T12:35:01.454Z,14.96
2022-10-05T12:38:04.109Z,15.00
2022-10-05T12:41:05.524Z,14.87
2022-10-05T12:43:32.569Z,14.82
2022-10-05T12:46:36.410Z,14.88
2022-10-05T12:49:41.422Z,14.86
2022-10-05T12:52:27.722Z,14.89
2022-10-05T12:55:10.030Z,14.74
2022-10-05T12:58:11.172Z,14.82
2022-10-05T13:00:51.092Z,14.69
2022-10-05T13:03:25.677Z,14.71
2022-10-05T13:06:05.214Z,14.74
2022-10-05T13:08:59.075Z,14.71
2022-10-05T13:11:40.975Z,14.72
2022-10-05T13:14:18.059Z,14.54
2022-10-05T13:17:14.018Z,14.56
2022-10-05T13:20:03.253Z,14.58
2022-10-05T13:22:43.104Z,14.60
2022-10-05T13:25:13.140Z,14.60
2022-10-05T13:28:25.367Z,14.61
2022-10-05T13:31:04.607Z,14.63
2022-10-05T13:33:31.581Z,14.61
2022-10-05T13:36:09.420Z,14.61
2022-10-05T13:38:59.711Z,14.59
2022-10-05T13:41:29.313Z,14.47
2022-10-05T13:44:25.546Z,14.44
2022-10-05T13:47:02.536Z,14.35
2022-10-05T13:49:42.121Z,14.34
2022-10-05T13:52:09.237Z,14.32
2022-10-05T13:54:50.632Z,14.30
2022-10-05T13:57:23.819Z,14.26
2022-10-05T13:59:58.056Z,14.22
2022-10-05T14:02:39.405Z,14.22
2022-10-05T14:05:18.438Z,14.17
2022-10-05T14:08:16.338Z,14.18
2022-10-05T14:10:46.543Z,14.13
2022-10-05T14:13:26.083Z,14.10
2022-10-05T14:16:16.077Z,14.03
2022-10-05T14:19:14.862Z,13.98
2022-10-05T14:21:54.296Z,13.93
2022-10-05T14:24:43.220Z,13.86
2022-10-05T14:27:22.289Z,13.85
2022-10-05T14:30:23.194Z,13.86
2022-10-05T14:33:03.805Z,13.87
2022-10-05T14:35:52.256Z,13.88
2022-10-05T14:38:29.596Z,13.90
2022-10-05T14:41:16.940Z,13.90
2022-10-05T14:44:03.377Z,13.87
2022-10-05T14:46:32.406Z,13.82
2022-10-05T14:49:21.847Z,13.76
2022-10-05T14:51:50.532Z,13.69
2022-10-05T14:54:40.719Z,13.65
2022-10-05T14:57:24.870Z,13.62
2022-10-05T15:00:11.180Z,13.58
2022-10-05T15:03:07.404Z,13.54
2022-10-05T15:05:52.098Z,13.43
2022-10-05T15:08:41.037Z,13.36
2022-10-05T15:11:19.856Z,13.25
2022-10-05T15:13:48.248Z,13.17
2022-10-05T15:16:24.431Z,13.10
2022-10-05T15:19:07.020Z,13.04
2022-10-05T15:21:49.012Z,12.97
2022-10-05T15:24:23.955Z,12.90
2022-10-05T15:26:53.285Z,12.83
2022-10-05T15:29:49.819Z,12.78
2022-10-05T15:32:34.152Z,12.70
2022-10-05T15:35:35.609Z,12.63
2022-10-05T15:38:20.271Z,12.55
2022-10-05T15:40:54.311Z,12.48
2022-10-05T15:43:22.973Z,12.44
2022-10-05T15:46:05.248Z,12.40
2022-10-05T15:49:05.232Z,12.33
2022-10-05T15:51:54.975Z,12.26
2022-10-05T15:54:49.393Z,12.16
2022-10-05T15:57:44.992Z,12.07
2022-10-05T16:00:19.040Z,11.97
2022-10-05T16:02:55.023Z,11.92
2022-10-05T16:06:02.562Z,11.84
2022-10-05T16:08:50.810Z,11.70
2022-10-05T16:11:57.189Z,11.55
2022-10-05T16:14:48.601Z,11.44
2022-10-05T16:17:40.434Z,11.36
2022-10-05T16:20:23.140Z,11.32
2022-10-05T16:23:18.146Z,11.26
2022-10-05T16:26:13.396Z,11.27
2022-10-05T16:28:59.253Z,11.21
2022-10-05T16:32:07.880Z,11.16
2022-10-05T16:34:56.034Z,11.08
2022-10-05T16:37:44.883Z,10.95
2022-10-05T16:40:51.769Z,10.86
2022-10-05T16:43:52.645Z,10.82
2022-10-05T16:46:36.833Z,10.76
2022-10-05T16:49:41.200Z,10.66
2022-10-05T16:52:15.485Z,10.55
2022-10-05T16:54:53.514Z,10.41
2022-10-05T16:57:32.023Z,10.32
2022-10-05T17:00:15.992Z,10.26
2022-10-05T17:02:52.701Z,10.28
2022-10-05T17:05:43.964Z,10.31
2022-10-05T17:08:39.076Z,10.18
2022-10-05T17:11:29.166Z,10.06
2022-10-05T17:14:16.403Z,10.09
2022-10-05T17:16:43.086Z,9.99
2022-10-05T17:19:21.334Z,9.87
2022-10-05T17:22:00.193Z,9.76
2022-10-05T17:24:35.315Z,9.83
2022-10-05T17:27:27.708Z,9.77
2022-10-05T17:30:15.587Z,9.65
2022-10-05T17:33:04.132Z,9.49
2022-10-05T17:35:39.989Z,9.39
2022-10-05T17:38:41.379Z,9.32
2022-10-05T17:41:30.728Z,9.26
2022-10-05T17:44:06.584Z,9.20
2022-10-05T17:46:38.225Z,9.23
2022-10-05T17:49:11.423Z,9.26
2022-10-05T17:51:56.838Z,9.28
2022-10-05T17:55:10.034Z,9.28
2022-10-05T17:57:39.138Z,9.27
2022-10-05T18:00:24.620Z,9.33
2022-10-05T18:02:56.108Z,9.39
2022-10-05T18:05:30.596Z,9.35
2022-10-05T18:08:12.802Z,9.28
2022-10-05T18:11:10.674Z,9.16
2022-10-05T18:13:49.572Z,9.06
2022-10-05T18:16:54.263Z,9.00
2022-10-05T18:19:22.741Z,8.99
2022-10-05T18:22:03.087Z,8.97
2022-10-05T18:24:40.973Z,8.95
2022-10-05T18:27:30.777Z,8.98
2022-10-05T18:30:22.804Z,9.03
2022-10-05T18:33:24.781Z,9.08
2022-10-05T18:36:09.429Z,9.06
2022-10-05T18:38:48.656Z,9.06
2022-10-05T18:41:26.344Z,9.00
2022-10-05T18:44:14.511Z,8.93
2022-10-05T18:47:01.543Z,8.88
2022-10-05T18:49:51.306Z,8.99
2022-10-05T18:52:43.548Z,9.02
2022-10-05T18:55:32.312Z,9.06
2022-10-05T18:58:17.370Z,9.06
2022-10-05T19:00:59.601Z,9.03
2022-10-05T19:03:52.614Z,9.00
2022-10-05T19:06:23.806Z,8.89
2022-10-05T19:09:00.795Z,8.84
2022-10-05T19:11:34.272Z,8.78
2022-10-05T19:14:15.966Z,8.73
2022-10-05T19:17:19.257Z,8.64
2022-10-05T19:20:06.471Z,8.57
2022-10-05T19:23:01.599Z,8.65
2022-10-05T19:26:02.843Z,8.58
2022-10-05T19:28:36.806Z,8.66
2022-10-05T19:31:41.799Z,8.69
2022-10-05T19:34:37.742Z,8.69
2022-10-05T19:37:14.294Z,8.66
2022-10-05T19:39:54.552Z,8.61
2022-10-05T19:42:40.845Z,8.56
2022-10-05T19:45:24.382Z,8.62
2022-10-05T19:48:03.418Z,8.62
2022-10-05T19:50:33.419Z,8.59
2022-10-05T19:53:16.597Z,8.53
2022-10-05T19:55:46.654Z,8.42
2022-10-05T19:58:21.108Z,8.40
2022-10-05T20:01:04.541Z,8.39
2022-10-05T20:03:36.740Z,8.37
2022-10-05T20:06:06.269Z,8.40
2022-10-05T20:08:42.553Z,8.48
2022-10-05T20:11:16.078Z,8.44
2022-10-05T20:13:46.656Z,8.43
2022-10-05T20:16:37.417Z,8.38
2022-10-05T20:19:43.590Z,8.38
2022-10-05T20:22:25.964Z,8.32
2022-10-05T20:25:06.053Z,8.25
2022-10-05T20:27:38.896Z,8.25
2022-10-05T20:30:07.622Z,8.33
2022-10-05T20:32:34.259Z,8.43
2022-10-05T20:35:01.317Z,8.47
2022-10-05T20:37:28.160Z,8.50
2022-10-05T20:39:55.009Z,8.54
2022-10-05T20:42:23.380Z,8.57
2022-10-05T20:44:55.800Z,8.57
2022-10-05T20:47:24.564Z,8.58
2022-10-05T20:49:52.892Z,8.58
2022-10-05T20:52:20.398Z,8.60
2022-10-05T20:54:47.425Z,8.60
2022-10-05T20:57:14.192Z,8.61
2022-10-05T20:59:41.025Z,8.59
2022-10-05T21:02:07.861Z,8.55
2022-10-05T21:04:40.254Z,8.54
2022-10-05T21:07:08.116Z,8.54
2022-10-05T21:09:37.846Z,8.54
2022-10-05T21:12:04.667Z,8.55
2022-10-05T21:14:33.696Z,8.55
2022-10-05T21:17:01.530Z,8.54
2022-10-05T21:19:29.092Z,8.53
2022-10-05T21:22:02.073Z,8.54
2022-10-05T21:24:28.927Z,8.56
2022-10-05T21:26:57.032Z,8.58
2022-10-05T21:29:23.845Z,8.60
2022-10-05T21:31:50.741Z,8.62
2022-10-05T21:34:17.639Z,8.59
2022-10-05T21:36:44.244Z,8.59
2022-10-05T21:39:11.031Z,8.56
2022-10-05T21:41:37.871Z,8.53
2022-10-05T21:44:06.354Z,8.50
2022-10-05T21:46:35.549Z,8.47
2022-10-05T21:49:03.268Z,8.44
2022-10-05T21:51:30.153Z,8.38
2022-10-05T21:54:06.308Z,8.33
2022-10-05T21:56:36.623Z,8.26
2022-10-05T21:59:07.062Z,8.24
2022-10-05T22:01:35.562Z,8.31
2022-10-05T22:04:04.350Z,8.32
2022-10-05T22:06:32.119Z,8.29
2022-10-05T22:08:59.363Z,8.36
2022-10-05T22:11:27.643Z,8.35
2022-10-05T22:14:01.588Z,8.39
2022-10-05T22:16:35.957Z,8.44
2022-10-05T22:19:05.394Z,8.46
2022-10-05T22:21:37.342Z,8.46
2022-10-05T22:24:04.592Z,8.46
2022-10-05T22:26:32.170Z,8.42
2022-10-05T22:29:01.256Z,8.43
2022-10-05T22:31:28.183Z,8.44
2022-10-05T22:33:55.049Z,8.44
2022-10-05T22:36:22.395Z,8.42
2022-10-05T22:38:49.444Z,8.36
2022-10-05T22:41:17.928Z,8.21
2022-10-05T22:43:49.372Z,8.14
2022-10-05T22:46:16.808Z,8.07
2022-10-05T22:48:44.455Z,7.99
2022-10-05T22:51:12.380Z,7.98
2022-10-05T22:53:39.222Z,7.94
2022-10-05T22:56:09.028Z,7.81
2022-10-05T22:58:36.805Z,7.78
2022-10-05T23:01:05.763Z,7.77
2022-10-05T23:03:33.572Z,7.73
2022-10-05T23:06:03.928Z,7.74
2022-10-05T23:08:32.853Z,7.72
2022-10-05T23:11:12.549Z,7.70
2022-10-05T23:13:40.394Z,7.63
2022-10-05T23:16:16.068Z,7.58
2022-10-05T23:18:43.926Z,7.64
2022-10-05T23:21:11.265Z,7.64
2022-10-05T23:23:40.369Z,7.66
2022-10-05T23:26:09.974Z,7.67
2022-10-05T23:28:46.041Z,7.57
2022-10-05T23:31:16.025Z,7.48
2022-10-05T23:33:43.421Z,7.45
2022-10-05T23:36:22.243Z,7.39
2022-10-05T23:38:50.313Z,7.39
2022-10-05T23:41:19.316Z,7.42
2022-10-05T23:43:46.862Z,7.52
2022-10-05T23:46:14.093Z,7.51
2022-10-05T23:48:40.970Z,7.43
2022-10-05T23:51:10.306Z,7.38
2022-10-05T23:53:37.417Z,7.33
2022-10-05T23:56:04.779Z,7.40
2022-10-05T23:58:32.114Z,7.36
